createdAt,value
2017-09-18T00:01:59.180Z,9.30
2017-09-18T00:04:27.268Z,9.20
2017-09-18T00:06:55.340Z,9.30
2017-09-18T00:09:23.411Z,9.30
2017-09-18T00:11:51.475Z,9.30
2017-09-18T00:14:19.544Z,9.20
2017-09-18T00:16:47.625Z,9.20
2017-09-18T00:19:15.692Z,9.20
2017-09-18T00:21:43.771Z,9.20
2017-09-18T00:24:11.840Z,9.20
2017-09-18T00:26:39.924Z,9.30
2017-09-18T00:29:07.987Z,9.30
2017-09-18T00:31:36.066Z,9.40
2017-09-18T00:34:04.119Z,9.40
2017-09-18T00:36:32.201Z,9.40
2017-09-18T00:39:00.268Z,9.30
2017-09-18T00:41:28.355Z,9.30
2017-09-18T00:43:57.191Z,9.10
2017-09-18T00:46:25.277Z,9.10
2017-09-18T00:48:53.347Z,9.10
2017-09-18T00:51:22.188Z,9.20
2017-09-18T00:53:51.031Z,9.20
2017-09-18T00:56:19.123Z,9.20
2017-09-18T00:58:47.205Z,9.10
2017-09-18T01:01:15.290Z,9.00
2017-09-18T01:03:43.344Z,9.10
2017-09-18T01:06:11.420Z,9.10
2017-09-18T01:08:39.492Z,9.10
2017-09-18T01:11:07.575Z,9.10
2017-09-18T01:13:35.641Z,9.20
2017-09-18T01:16:03.723Z,9.20
2017-09-18T01:18:31.792Z,9.40
2017-09-18T01:20:59.868Z,9.50
2017-09-18T01:23:27.960Z,9.50
2017-09-18T01:25:56.804Z,9.50
2017-09-18T01:28:24.870Z,9.50
2017-09-18T01:30:53.046Z,9.60
2017-09-18T01:33:21.119Z,9.70
2017-09-18T01:35:49.199Z,9.70
2017-09-18T01:38:17.274Z,9.70
2017-09-18T01:40:45.362Z,9.80
2017-09-18T01:43:13.428Z,9.80
2017-09-18T01:45:41.494Z,9.90
2017-09-18T01:48:09.571Z,9.80
2017-09-18T01:50:37.690Z,9.60
2017-09-18T01:53:05.760Z,9.50
2017-09-18T01:55:33.858Z,9.40
2017-09-18T01:58:01.936Z,9.30
2017-09-18T02:00:30.019Z,9.30
2017-09-18T02:02:58.113Z,9.30
2017-09-18T02:05:26.201Z,9.30
2017-09-18T02:07:55.046Z,9.20
2017-09-18T02:10:23.141Z,9.20
2017-09-18T02:12:51.662Z,9.30
2017-09-18T02:15:20.513Z,9.30
2017-09-18T02:17:48.658Z,9.30
2017-09-18T02:20:17.504Z,9.30
2017-09-18T02:22:46.352Z,9.30
2017-09-18T02:25:14.436Z,9.30
2017-09-18T02:27:42.520Z,9.30
2017-09-18T02:30:10.615Z,9.30
2017-09-18T02:32:39.469Z,9.40
2017-09-18T02:35:07.545Z,9.30
2017-09-18T02:37:35.629Z,9.40
2017-09-18T02:40:03.700Z,9.40
2017-09-18T02:42:31.787Z,9.40
2017-09-18T02:44:59.856Z,9.40
2017-09-18T02:47:27.938Z,9.40
2017-09-18T02:49:56.772Z,9.50
2017-09-18T02:52:25.618Z,9.40
2017-09-18T02:54:54.461Z,9.40
2017-09-18T02:57:22.548Z,9.40
2017-09-18T02:59:50.621Z,9.50
2017-09-18T03:02:18.694Z,9.50
2017-09-18T03:04:46.760Z,9.50
2017-09-18T03:07:14.852Z,9.40
2017-09-18T03:09:42.940Z,9.40
2017-09-18T03:12:11.026Z,9.40
2017-09-18T03:14:39.863Z,9.40
2017-09-18T03:17:08.706Z,9.40
2017-09-18T03:19:37.551Z,9.40
2017-09-18T03:22:05.672Z,9.30
2017-09-18T03:24:34.502Z,9.40
2017-09-18T03:27:02.591Z,9.40
2017-09-18T03:29:30.679Z,9.40
2017-09-18T03:31:58.767Z,9.40
2017-09-18T03:34:27.628Z,9.40
2017-09-18T03:36:55.703Z,9.40
2017-09-18T03:39:23.788Z,9.40
2017-09-18T03:41:51.877Z,9.50
2017-09-18T03:44:20.722Z,9.50
2017-09-18T03:46:48.809Z,9.40
2017-09-18T03:49:16.882Z,9.50
2017-09-18T03:51:44.967Z,9.40
2017-09-18T03:54:13.055Z,9.50
2017-09-18T03:56:41.133Z,9.50
2017-09-18T03:59:09.981Z,9.50
2017-09-18T04:01:38.069Z,9.50
2017-09-18T04:04:06.146Z,9.50
2017-09-18T04:06:34.219Z,9.60
2017-09-18T04:09:02.292Z,9.50
2017-09-18T04:11:30.379Z,9.70
2017-09-18T04:13:58.457Z,9.60
2017-09-18T04:16:27.344Z,10.30
2017-09-18T04:18:55.429Z,10.30
2017-09-18T04:21:24.280Z,9.90
2017-09-18T04:23:52.356Z,9.90
2017-09-18T04:26:20.444Z,9.80
2017-09-18T04:28:48.512Z,9.80
2017-09-18T04:31:16.613Z,9.80
2017-09-18T04:33:45.447Z,9.80
2017-09-18T04:36:13.536Z,9.80
2017-09-18T04:38:41.604Z,9.80
2017-09-18T04:41:09.691Z,9.80
2017-09-18T04:43:37.764Z,9.90
2017-09-18T04:46:05.840Z,9.80
2017-09-18T04:48:33.924Z,9.90
2017-09-18T04:51:01.986Z,9.90
2017-09-18T04:53:30.069Z,9.90
2017-09-18T04:55:58.139Z,9.90
2017-09-18T04:58:26.228Z,9.80
2017-09-18T05:00:55.067Z,9.80
2017-09-18T05:03:23.148Z,9.80
2017-09-18T05:05:51.220Z,9.80
2017-09-18T05:08:19.312Z,9.90
2017-09-18T05:10:47.384Z,9.90
2017-09-18T05:13:15.464Z,9.90
2017-09-18T05:15:43.549Z,9.90
2017-09-18T05:18:11.627Z,9.90
2017-09-18T05:20:40.477Z,10.00
2017-09-18T05:23:08.548Z,10.00
2017-09-18T05:25:36.644Z,10.00
2017-09-18T05:28:04.740Z,10.00
2017-09-18T05:30:33.588Z,10.00
2017-09-18T05:33:01.664Z,10.10
2017-09-18T05:35:29.765Z,10.00
2017-09-18T05:37:57.839Z,10.10
2017-09-18T05:40:26.697Z,10.20
2017-09-18T05:42:54.793Z,10.10
2017-09-18T05:45:22.880Z,10.20
2017-09-18T05:47:51.726Z,10.30
2017-09-18T05:50:19.829Z,10.30
2017-09-18T05:52:47.899Z,10.30
2017-09-18T05:55:16.001Z,10.30
2017-09-18T05:57:44.856Z,10.40
2017-09-18T06:00:12.936Z,10.30
2017-09-18T06:02:41.025Z,10.40
2017-09-18T06:05:09.878Z,10.40
2017-09-18T06:07:37.967Z,10.40
2017-09-18T06:10:06.043Z,10.40
2017-09-18T06:12:34.115Z,10.40
2017-09-18T06:15:02.184Z,10.40
2017-09-18T06:17:30.275Z,10.40
2017-09-18T06:19:59.132Z,10.50
2017-09-18T06:22:27.219Z,10.40
2017-09-18T06:24:55.300Z,10.50
2017-09-18T06:27:23.375Z,10.50
2017-09-18T06:29:51.468Z,10.50
2017-09-18T06:32:20.308Z,10.50
2017-09-18T06:34:48.400Z,10.50
2017-09-18T06:37:16.480Z,10.40
2017-09-18T06:39:44.586Z,10.50
2017-09-18T06:42:12.651Z,10.50
2017-09-18T06:44:41.507Z,10.50
2017-09-18T06:47:09.583Z,10.50
2017-09-18T06:49:37.684Z,10.50
2017-09-18T06:52:06.528Z,10.70
2017-09-18T06:54:34.627Z,10.70
2017-09-18T06:57:02.706Z,10.80
2017-09-18T06:59:31.568Z,10.90
2017-09-18T07:01:59.655Z,10.90
2017-09-18T07:04:27.752Z,10.90
2017-09-18T07:06:55.864Z,10.90
2017-09-18T07:09:24.723Z,10.80
2017-09-18T07:11:53.572Z,10.80
2017-09-18T07:14:21.652Z,10.80
2017-09-18T07:16:49.735Z,10.90
2017-09-18T07:19:17.814Z,10.90
2017-09-18T07:21:46.678Z,11.00
2017-09-18T07:24:14.760Z,11.00
2017-09-18T07:26:42.848Z,11.00
2017-09-18T07:29:10.932Z,10.90
2017-09-18T07:31:39.787Z,11.00
2017-09-18T07:34:07.876Z,11.00
2017-09-18T07:36:35.976Z,11.00
2017-09-18T07:39:04.817Z,11.10
2017-09-18T07:41:32.896Z,11.10
2017-09-18T07:44:00.992Z,11.20
2017-09-18T07:46:29.075Z,11.20
2017-09-18T07:48:57.161Z,11.20
2017-09-18T07:51:26.000Z,11.30
2017-09-18T07:53:54.092Z,11.30
2017-09-18T07:56:22.177Z,11.30
2017-09-18T07:58:51.052Z,11.40
2017-09-18T08:01:19.137Z,11.30
2017-09-18T08:03:47.232Z,11.50
2017-09-18T08:06:16.076Z,11.50
2017-09-18T08:08:44.168Z,11.40
2017-09-18T08:11:12.251Z,11.50
2017-09-18T08:13:41.093Z,11.60
2017-09-18T08:16:09.178Z,11.60
2017-09-18T08:18:37.258Z,11.70
2017-09-18T08:21:05.344Z,11.70
2017-09-18T08:23:33.423Z,11.80
2017-09-18T08:26:01.508Z,11.80
2017-09-18T08:28:30.351Z,11.90
2017-09-18T08:30:58.460Z,11.80
2017-09-18T08:33:26.540Z,11.90
2017-09-18T08:35:55.398Z,11.90
2017-09-18T08:38:23.472Z,11.90
2017-09-18T08:40:51.555Z,11.90
2017-09-18T08:43:19.648Z,11.90
2017-09-18T08:45:47.735Z,11.90
2017-09-18T08:48:16.576Z,11.90
2017-09-18T08:50:44.667Z,11.90
2017-09-18T08:53:12.753Z,12.00
2017-09-18T08:55:40.833Z,12.20
2017-09-18T08:58:09.687Z,12.30
2017-09-18T09:00:37.769Z,12.30
2017-09-18T09:03:05.853Z,12.30
2017-09-18T09:05:33.931Z,12.30
2017-09-18T09:08:02.024Z,12.30
2017-09-18T09:10:30.887Z,12.20
2017-09-18T09:12:58.976Z,12.10
2017-09-18T09:15:27.836Z,12.30
2017-09-18T09:17:55.923Z,12.30
2017-09-18T09:20:24.003Z,12.30
2017-09-18T09:22:52.096Z,12.30
2017-09-18T09:25:20.943Z,12.30
2017-09-18T09:27:49.028Z,12.30
2017-09-18T09:30:17.120Z,12.40
2017-09-18T09:32:45.975Z,12.60
2017-09-18T09:35:14.075Z,12.60
2017-09-18T09:37:42.153Z,12.60
2017-09-18T09:40:10.236Z,12.70
2017-09-18T09:42:39.066Z,12.80
2017-09-18T09:45:07.154Z,12.80
2017-09-18T09:47:35.243Z,12.80
2017-09-18T09:50:03.338Z,12.80
2017-09-18T09:52:32.196Z,12.60
2017-09-18T09:55:00.300Z,12.60
2017-09-18T09:57:28.376Z,12.60
2017-09-18T09:59:57.220Z,12.70
2017-09-18T10:02:25.304Z,12.70
2017-09-18T10:04:53.388Z,12.80
2017-09-18T10:07:21.464Z,13.00
2017-09-18T10:09:49.561Z,13.00
2017-09-18T10:12:18.432Z,13.30
2017-09-18T10:14:46.498Z,13.30
2017-09-18T10:17:14.583Z,13.40
2017-09-18T10:19:42.656Z,13.60
2017-09-18T10:22:10.743Z,13.60
2017-09-18T10:24:39.595Z,13.80
2017-09-18T10:27:07.664Z,13.80
2017-09-18T10:29:35.736Z,13.90
2017-09-18T10:32:03.832Z,13.90
2017-09-18T10:34:31.932Z,13.80
2017-09-18T10:37:00.776Z,13.60
2017-09-18T10:39:28.868Z,13.60
2017-09-18T10:41:56.938Z,13.50
2017-09-18T10:44:25.028Z,13.50
2017-09-18T10:46:53.888Z,13.50
2017-09-18T10:49:21.972Z,13.50
2017-09-18T10:51:50.054Z,13.60
2017-09-18T10:54:18.136Z,13.70
2017-09-18T10:56:46.433Z,13.60
2017-09-18T10:59:15.285Z,13.80
2017-09-18T11:01:43.360Z,13.80
2017-09-18T11:04:11.427Z,14.10
2017-09-18T11:06:39.504Z,14.20
2017-09-18T11:09:07.575Z,14.50
2017-09-18T11:11:35.657Z,14.70
2017-09-18T11:14:03.721Z,14.60
2017-09-18T11:16:31.795Z,14.60
2017-09-18T11:18:59.868Z,14.50
2017-09-18T11:21:27.938Z,14.50
2017-09-18T11:23:56.020Z,14.30
2017-09-18T11:26:24.889Z,14.40
2017-09-18T11:28:52.955Z,14.40
2017-09-18T11:31:21.027Z,14.60
2017-09-18T11:33:49.106Z,14.50
2017-09-18T11:36:17.163Z,14.70
2017-09-18T11:38:45.247Z,14.80
2017-09-18T11:41:13.316Z,14.90
2017-09-18T11:43:41.387Z,14.90
2017-09-18T11:46:09.459Z,15.00
2017-09-18T11:48:37.539Z,15.00
2017-09-18T11:51:05.612Z,14.90
2017-09-18T11:53:33.679Z,14.90
2017-09-18T11:56:01.751Z,14.90
2017-09-18T11:58:29.839Z,15.00
2017-09-18T12:00:57.911Z,14.90
2017-09-18T12:03:25.998Z,15.00
2017-09-18T12:05:54.059Z,15.00
2017-09-18T12:08:22.132Z,14.90
2017-09-18T12:10:50.198Z,14.90
2017-09-18T12:13:18.275Z,14.90
2017-09-18T12:15:46.347Z,14.90
2017-09-18T12:18:14.408Z,15.10
2017-09-18T12:20:42.496Z,15.10
2017-09-18T12:23:10.572Z,15.10
2017-09-18T12:25:38.647Z,15.20
2017-09-18T12:28:06.715Z,15.20
2017-09-18T12:30:34.796Z,15.20
2017-09-18T12:33:02.859Z,15.30
2017-09-18T12:35:30.946Z,15.50
2017-09-18T12:37:59.013Z,15.60
2017-09-18T12:40:27.083Z,15.70
2017-09-18T12:42:55.164Z,15.80
2017-09-18T12:45:23.240Z,15.70
2017-09-18T12:47:52.083Z,15.80
2017-09-18T12:50:20.140Z,15.80
2017-09-18T12:52:48.220Z,15.80
2017-09-18T12:55:16.299Z,15.70
2017-09-18T12:57:44.372Z,15.70
2017-09-18T13:00:12.440Z,15.60
2017-09-18T13:02:40.514Z,15.50
2017-09-18T13:05:08.587Z,15.50
2017-09-18T13:07:36.664Z,15.50
2017-09-18T13:10:04.723Z,15.60
2017-09-18T13:12:32.815Z,15.80
2017-09-18T13:15:00.887Z,16.10
2017-09-18T13:17:28.958Z,16.20
2017-09-18T13:19:57.031Z,16.20
2017-09-18T13:22:25.148Z,16.10
2017-09-18T13:24:54.935Z,15.80
2017-09-18T13:27:23.020Z,15.80
2017-09-18T13:29:51.317Z,15.60
2017-09-18T13:32:20.148Z,15.80
2017-09-18T13:34:48.235Z,15.80
2017-09-18T13:37:16.308Z,15.80
2017-09-18T13:39:44.380Z,15.60
2017-09-18T13:42:12.450Z,15.60
2017-09-18T13:44:40.526Z,15.60
2017-09-18T13:47:08.597Z,15.60
2017-09-18T13:49:36.667Z,15.50
2017-09-18T13:52:04.731Z,15.50
2017-09-18T13:54:32.817Z,15.40
2017-09-18T13:57:00.883Z,15.10
2017-09-18T13:59:28.955Z,15.00
2017-09-18T14:01:57.033Z,14.90
2017-09-18T14:04:25.103Z,14.70
2017-09-18T14:06:53.172Z,14.80
2017-09-18T14:09:21.249Z,15.00
2017-09-18T14:11:49.315Z,15.00
2017-09-18T14:14:17.387Z,15.10
2017-09-18T14:16:45.463Z,15.10
2017-09-18T14:19:13.534Z,15.30
2017-09-18T14:21:41.608Z,15.50
2017-09-18T14:24:09.687Z,15.40
2017-09-18T14:26:37.751Z,15.50
2017-09-18T14:29:05.825Z,15.40
2017-09-18T14:31:33.915Z,15.50
2017-09-18T14:34:01.989Z,15.60
2017-09-18T14:36:30.063Z,15.70
2017-09-18T14:38:58.148Z,15.60
2017-09-18T14:41:26.220Z,15.50
2017-09-18T14:43:54.287Z,15.50
2017-09-18T14:46:22.359Z,15.50
2017-09-18T14:48:50.423Z,15.60
2017-09-18T14:51:18.491Z,15.60
2017-09-18T14:53:46.563Z,15.70
2017-09-18T14:56:14.627Z,15.60
2017-09-18T14:58:42.711Z,15.60
2017-09-18T15:01:10.783Z,15.60
2017-09-18T15:03:38.855Z,15.40
2017-09-18T15:06:06.928Z,15.30
2017-09-18T15:08:35.004Z,15.20
2017-09-18T15:11:03.084Z,15.10
2017-09-18T15:13:31.148Z,15.00
2017-09-18T15:15:59.243Z,14.90
2017-09-18T15:18:28.089Z,14.90
2017-09-18T15:20:56.169Z,14.90
2017-09-18T15:23:24.235Z,14.90
2017-09-18T15:25:52.317Z,14.90
2017-09-18T15:28:20.384Z,15.10
2017-09-18T15:30:48.461Z,15.10
2017-09-18T15:33:16.527Z,15.00
2017-09-18T15:35:44.599Z,15.10
2017-09-18T15:38:12.676Z,14.90
2017-09-18T15:40:40.751Z,15.00
2017-09-18T15:43:08.820Z,15.10
2017-09-18T15:45:36.886Z,15.10
2017-09-18T15:48:04.960Z,15.10
2017-09-18T15:50:33.033Z,15.00
2017-09-18T15:53:01.938Z,14.80
2017-09-18T15:55:30.011Z,14.80
2017-09-18T15:57:58.083Z,14.80
2017-09-18T16:00:26.160Z,14.90
2017-09-18T16:02:54.242Z,14.90
2017-09-18T16:05:22.299Z,14.70
2017-09-18T16:07:50.364Z,14.70
2017-09-18T16:10:18.435Z,14.70
2017-09-18T16:12:46.515Z,14.80
2017-09-18T16:15:14.595Z,14.90
2017-09-18T16:17:42.686Z,14.40
2017-09-18T16:20:11.527Z,14.00
2017-09-18T16:22:39.590Z,14.00
2017-09-18T16:25:07.680Z,13.80
2017-09-18T16:27:35.751Z,13.90
2017-09-18T16:30:03.861Z,13.60
2017-09-18T16:32:31.932Z,13.70
2017-09-18T16:35:00.004Z,13.70
2017-09-18T16:37:28.076Z,13.70
2017-09-18T16:39:56.156Z,13.60
2017-09-18T16:42:24.223Z,13.70
2017-09-18T16:44:52.302Z,13.70
2017-09-18T16:47:21.132Z,13.70
2017-09-18T16:49:49.975Z,13.70
2017-09-18T16:52:18.037Z,13.70
2017-09-18T16:54:46.120Z,13.60
2017-09-18T16:57:14.179Z,13.60
2017-09-18T16:59:42.275Z,13.70
2017-09-18T17:02:11.103Z,13.60
2017-09-18T17:04:39.943Z,13.60
2017-09-18T17:07:08.016Z,13.50
2017-09-18T17:09:36.089Z,13.60
2017-09-18T17:12:04.166Z,13.60
2017-09-18T17:14:32.366Z,13.50
2017-09-18T17:17:01.208Z,13.30
2017-09-18T17:19:29.293Z,13.30
2017-09-18T17:21:57.376Z,13.00
2017-09-18T17:24:25.447Z,12.90
2017-09-18T17:26:53.519Z,12.90
2017-09-18T17:29:21.587Z,12.80
2017-09-18T17:31:49.675Z,12.80
2017-09-18T17:34:18.524Z,12.90
2017-09-18T17:36:46.606Z,12.90
2017-09-18T17:39:14.681Z,12.90
2017-09-18T17:41:42.756Z,12.90
2017-09-18T17:44:10.944Z,12.90
2017-09-18T17:46:39.020Z,13.00
2017-09-18T17:49:07.112Z,13.00
2017-09-18T17:51:35.960Z,13.00
2017-09-18T17:54:13.948Z,13.00
2017-09-18T17:56:42.011Z,13.00
2017-09-18T17:59:10.947Z,12.90
2017-09-18T18:01:39.014Z,12.90
2017-09-18T18:04:07.126Z,12.90
2017-09-18T18:06:35.225Z,12.90
2017-09-18T18:09:03.363Z,12.90
2017-09-18T18:11:32.251Z,12.80
2017-09-18T18:14:01.099Z,12.70
2017-09-18T18:16:29.190Z,12.70
2017-09-18T18:18:57.382Z,12.60
2017-09-18T18:21:26.252Z,12.50
2017-09-18T18:23:55.092Z,12.40
2017-09-18T18:26:23.190Z,12.40
2017-09-18T18:28:52.032Z,12.20
2017-09-18T18:31:20.202Z,12.20
2017-09-18T18:33:49.110Z,12.00
2017-09-18T18:36:17.961Z,12.00
2017-09-18T18:38:46.073Z,12.00
2017-09-18T18:41:14.914Z,11.90
2017-09-18T18:43:43.073Z,11.90
2017-09-18T18:46:11.202Z,11.80
2017-09-18T18:48:40.085Z,11.90
2017-09-18T18:51:08.214Z,11.80
2017-09-18T18:53:36.327Z,11.80
2017-09-18T18:56:04.411Z,11.70
2017-09-18T18:58:33.279Z,11.40
2017-09-18T19:01:01.369Z,11.40
2017-09-18T19:03:29.439Z,11.50
2017-09-18T19:05:58.302Z,11.60
2017-09-18T19:08:27.020Z,11.60
2017-09-18T19:10:55.911Z,11.70
2017-09-18T19:13:24.760Z,11.70
2017-09-18T19:15:52.927Z,11.70
2017-09-18T19:18:21.004Z,11.80
2017-09-18T19:20:49.129Z,11.80
2017-09-18T19:23:18.073Z,12.00
2017-09-18T19:25:47.129Z,12.00
2017-09-18T19:28:16.059Z,11.90
2017-09-18T19:30:44.152Z,11.90
2017-09-18T19:33:12.288Z,12.00
2017-09-18T19:35:40.380Z,12.00
2017-09-18T19:38:08.468Z,12.10
2017-09-18T19:40:36.586Z,12.10
2017-09-18T19:43:05.587Z,12.00
2017-09-18T19:45:34.429Z,12.00
2017-09-18T19:48:02.520Z,12.00
2017-09-18T19:50:30.600Z,12.00
2017-09-18T19:52:59.461Z,11.90
2017-09-18T19:55:27.528Z,11.90
2017-09-18T19:57:55.616Z,11.90
2017-09-18T20:00:23.724Z,11.80
2017-09-18T20:02:52.955Z,11.90
2017-09-18T20:05:21.051Z,11.90
2017-09-18T20:07:49.125Z,12.00
2017-09-18T20:10:17.219Z,12.00
2017-09-18T20:12:45.299Z,11.90
2017-09-18T20:15:14.158Z,11.90
2017-09-18T20:17:42.241Z,11.90
2017-09-18T20:20:10.314Z,11.90
2017-09-18T20:22:38.388Z,12.00
2017-09-18T20:25:06.488Z,11.90
2017-09-18T20:27:35.355Z,11.70
2017-09-18T20:30:03.529Z,11.70
2017-09-18T20:32:31.601Z,11.70
2017-09-18T20:34:59.676Z,11.60
2017-09-18T20:37:27.755Z,11.50
2017-09-18T20:39:55.848Z,11.40
2017-09-18T20:42:24.697Z,11.50
2017-09-18T20:44:52.780Z,11.50
2017-09-18T20:47:20.864Z,11.50
2017-09-18T20:49:48.945Z,11.60
2017-09-18T20:52:17.806Z,11.40
2017-09-18T20:54:45.884Z,11.40
2017-09-18T20:57:13.977Z,11.30
2017-09-18T20:59:42.048Z,11.10
2017-09-18T21:02:10.136Z,11.10
2017-09-18T21:04:38.984Z,11.10
2017-09-18T21:07:07.076Z,11.00
2017-09-18T21:09:35.158Z,11.00
2017-09-18T21:12:03.240Z,11.00
2017-09-18T21:14:32.091Z,10.70
2017-09-18T21:17:00.180Z,10.70
2017-09-18T21:19:28.256Z,10.50
2017-09-18T21:21:56.340Z,10.50
2017-09-18T21:24:24.416Z,10.50
2017-09-18T21:26:53.334Z,10.50
2017-09-18T21:29:21.442Z,10.50
2017-09-18T21:31:49.557Z,10.40
2017-09-18T21:34:18.404Z,10.40
2017-09-18T21:36:46.483Z,10.40
2017-09-18T21:39:14.560Z,10.30
2017-09-18T21:41:42.664Z,10.30
2017-09-18T21:44:11.520Z,10.30
2017-09-18T21:46:39.607Z,10.30
2017-09-18T21:49:07.692Z,10.20
2017-09-18T21:51:35.768Z,10.00
2017-09-18T21:54:03.850Z,10.00
2017-09-18T21:56:32.703Z,10.00
2017-09-18T21:59:00.779Z,9.90
2017-09-18T22:01:28.861Z,9.90
2017-09-18T22:03:56.964Z,10.00
2017-09-18T22:06:25.814Z,10.00
2017-09-18T22:08:53.908Z,9.90
2017-09-18T22:11:21.985Z,10.00
2017-09-18T22:13:50.849Z,9.90
2017-09-18T22:16:18.918Z,9.90
2017-09-18T22:18:47.008Z,9.90
2017-09-18T22:21:15.126Z,9.80
2017-09-18T22:23:43.271Z,9.90
2017-09-18T22:26:11.354Z,9.90
2017-09-18T22:28:40.212Z,9.90
2017-09-18T22:31:08.292Z,9.90
2017-09-18T22:33:36.375Z,9.90
2017-09-18T22:36:04.447Z,9.90
2017-09-18T22:38:32.529Z,9.90
2017-09-18T22:41:01.383Z,9.80
2017-09-18T22:43:29.486Z,9.80
2017-09-18T22:45:57.556Z,9.90
2017-09-18T22:48:25.700Z,9.90
2017-09-18T22:50:53.776Z,9.90
2017-09-18T22:53:21.863Z,9.90
2017-09-18T22:55:49.967Z,9.90
2017-09-18T22:58:18.817Z,9.80
2017-09-18T23:00:46.928Z,9.80
2017-09-18T23:03:15.770Z,9.70
2017-09-18T23:05:43.839Z,9.70
2017-09-18T23:08:11.921Z,9.70
2017-09-18T23:10:39.992Z,9.70
2017-09-18T23:13:08.080Z,9.80
2017-09-18T23:15:37.221Z,10.00
2017-09-18T23:18:06.067Z,9.80
2017-09-18T23:20:34.143Z,9.80
2017-09-18T23:23:02.233Z,9.70
2017-09-18T23:25:31.084Z,9.70
2017-09-18T23:27:59.165Z,9.70
2017-09-18T23:30:27.246Z,9.70
2017-09-18T23:32:55.328Z,9.70
2017-09-18T23:35:23.435Z,9.80
2017-09-18T23:37:52.293Z,9.90
2017-09-18T23:40:20.361Z,9.90
2017-09-18T23:42:48.456Z,9.90
2017-09-18T23:45:17.303Z,10.00
2017-09-18T23:47:45.383Z,10.00
2017-09-18T23:50:13.836Z,10.00
2017-09-18T23:52:41.931Z,10.00
2017-09-18T23:55:10.008Z,9.80
2017-09-18T23:57:38.097Z,9.80
